sensor_id;sensor_type;location;lat;lon;timestamp;P1;durP1;ratioP1;P2;durP2;ratioP2
64857;SDS011;51335;51.148;6.950;2023-02-01T00:00:10;26.58;;;10.23;;
64857;SDS011;51335;51.148;6.950;2023-02-01T00:00:41;25.48;;;10.40;;
64857;SDS011;51335;51.148;6.950;2023-02-01T00:01:11;26.00;;;11.32;;
64857;SDS011;51335;51.148;6.950;2023-02-01T00:01:41;29.98;;;11.10;;
64857;SDS011;51335;51.148;6.950;2023-02-01T00:02:12;25.13;;;9.93;;
64857;SDS011;51335;51.148;6.950;2023-02-01T00:02:42;21.58;;;10.48;;
64857;SDS011;51335;51.148;6.950;2023-02-01T00:03:12;24.42;;;10.25;;
64857;SDS011;51335;51.148;6.950;2023-02-01T00:03:42;22.25;;;10.35;;
64857;SDS011;51335;51.148;6.950;2023-02-01T00:04:13;24.08;;;10.25;;
64857;SDS011;51335;51.148;6.950;2023-02-01T00:04:43;23.75;;;10.85;;
64857;SDS011;51335;51.148;6.950;2023-02-01T00:05:14;24.13;;;10.50;;
64857;SDS011;51335;51.148;6.950;2023-02-01T00:05:44;26.75;;;10.02;;
64857;SDS011;51335;51.148;6.950;2023-02-01T00:06:14;22.23;;;9.98;;
64857;SDS011;51335;51.148;6.950;2023-02-01T00:06:45;26.15;;;9.88;;
64857;SDS011;51335;51.148;6.950;2023-02-01T00:07:15;20.98;;;10.32;;
64857;SDS011;51335;51.148;6.950;2023-02-01T00:07:46;22.58;;;9.70;;
64857;SDS011;51335;51.148;6.950;2023-02-01T00:08:17;25.48;;;10.15;;
64857;SDS011;51335;51.148;6.950;2023-02-01T00:08:47;22.38;;;9.77;;
64857;SDS011;51335;51.148;6.950;2023-02-01T00:09:17;24.73;;;9.65;;
64857;SDS011;51335;51.148;6.950;2023-02-01T00:09:48;26.55;;;10.25;;
64857;SDS011;51335;51.148;6.950;2023-02-01T00:10:18;22.80;;;9.48;;
64857;SDS011;51335;51.148;6.950;2023-02-01T00:10:48;22.02;;;9.52;;
64857;SDS011;51335;51.148;6.950;2023-02-01T00:11:19;21.80;;;9.77;;
64857;SDS011;51335;51.148;6.950;2023-02-01T00:11:49;22.00;;;9.68;;
64857;SDS011;51335;51.148;6.950;2023-02-01T00:12:19;19.85;;;9.48;;
64857;SDS011;51335;51.148;6.950;2023-02-01T00:12:50;24.75;;;10.30;;
64857;SDS011;51335;51.148;6.950;2023-02-01T00:13:20;24.27;;;10.23;;
64857;SDS011;51335;51.148;6.950;2023-02-01T00:13:50;30.67;;;10.02;;
64857;SDS011;51335;51.148;6.950;2023-02-01T00:14:21;19.90;;;9.95;;
64857;SDS011;51335;51.148;6.950;2023-02-01T00:14:51;23.75;;;10.35;;
64857;SDS011;51335;51.148;6.950;2023-02-01T00:15:21;21.33;;;10.38;;
64857;SDS011;51335;51.148;6.950;2023-02-01T00:15:51;25.63;;;10.05;;
64857;SDS011;51335;51.148;6.950;2023-02-01T00:16:26;26.70;;;10.77;;
64857;SDS011;51335;51.148;6.950;2023-02-01T00:16:58;23.38;;;9.73;;
64857;SDS011;51335;51.148;6.950;2023-02-01T00:17:28;18.25;;;9.52;;
64857;SDS011;51335;51.148;6.950;2023-02-01T00:17:58;22.77;;;9.40;;
64857;SDS011;51335;51.148;6.950;2023-02-01T00:18:28;25.00;;;9.75;;
64857;SDS011;51335;51.148;6.950;2023-02-01T00:19:01;21.58;;;9.73;;
64857;SDS011;51335;51.148;6.950;2023-02-01T00:19:33;21.08;;;9.68;;
64857;SDS011;51335;51.148;6.950;2023-02-01T00:20:04;17.75;;;8.65;;
64857;SDS011;51335;51.148;6.950;2023-02-01T00:20:35;23.65;;;9.82;;
64857;SDS011;51335;51.148;6.950;2023-02-01T00:21:05;24.33;;;9.60;;
64857;SDS011;51335;51.148;6.950;2023-02-01T00:21:35;25.05;;;9.55;;
64857;SDS011;51335;51.148;6.950;2023-02-01T00:22:06;25.67;;;9.52;;
64857;SDS011;51335;51.148;6.950;2023-02-01T00:22:36;23.75;;;9.63;;
64857;SDS011;51335;51.148;6.950;2023-02-01T00:23:06;20.85;;;8.93;;
64857;SDS011;51335;51.148;6.950;2023-02-01T00:23:37;26.20;;;10.05;;
64857;SDS011;51335;51.148;6.950;2023-02-01T00:24:08;26.88;;;9.35;;
64857;SDS011;51335;51.148;6.950;2023-02-01T00:24:40;22.48;;;9.77;;
64857;SDS011;51335;51.148;6.950;2023-02-01T00:25:10;25.55;;;9.38;;
64857;SDS011;51335;51.148;6.950;2023-02-01T00:25:40;24.17;;;9.27;;
64857;SDS011;51335;51.148;6.950;2023-02-01T00:26:13;26.58;;;9.90;;
64857;SDS011;51335;51.148;6.950;2023-02-01T00:26:46;18.65;;;9.65;;
64857;SDS011;51335;51.148;6.950;2023-02-01T00:27:17;22.20;;;9.40;;
64857;SDS011;51335;51.148;6.950;2023-02-01T00:27:50;22.45;;;8.60;;
64857;SDS011;51335;51.148;6.950;2023-02-01T00:28:20;17.58;;;8.25;;
64857;SDS011;51335;51.148;6.950;2023-02-01T00:28:51;23.48;;;8.82;;
64857;SDS011;51335;51.148;6.950;2023-02-01T00:29:21;24.27;;;8.90;;
64857;SDS011;51335;51.148;6.950;2023-02-01T00:29:53;26.92;;;9.57;;
64857;SDS011;51335;51.148;6.950;2023-02-01T00:30:24;21.50;;;8.48;;
64857;SDS011;51335;51.148;6.950;2023-02-01T00:31:01;19.45;;;9.10;;
64857;SDS011;51335;51.148;6.950;2023-02-01T00:31:33;25.95;;;8.98;;
64857;SDS011;51335;51.148;6.950;2023-02-01T00:32:03;26.13;;;9.07;;
64857;SDS011;51335;51.148;6.950;2023-02-01T00:32:34;23.73;;;8.70;;
64857;SDS011;51335;51.148;6.950;2023-02-01T00:33:05;26.42;;;9.23;;
64857;SDS011;51335;51.148;6.950;2023-02-01T00:33:35;22.75;;;9.57;;
64857;SDS011;51335;51.148;6.950;2023-02-01T00:34:05;27.42;;;9.68;;
64857;SDS011;51335;51.148;6.950;2023-02-01T00:34:36;22.52;;;8.52;;
64857;SDS011;51335;51.148;6.950;2023-02-01T00:35:06;23.67;;;9.60;;
64857;SDS011;51335;51.148;6.950;2023-02-01T00:35:37;25.75;;;9.02;;
64857;SDS011;51335;51.148;6.950;2023-02-01T00:36:08;20.98;;;9.05;;
64857;SDS011;51335;51.148;6.950;2023-02-01T00:36:39;23.88;;;8.68;;
64857;SDS011;51335;51.148;6.950;2023-02-01T00:37:10;20.45;;;8.15;;
64857;SDS011;51335;51.148;6.950;2023-02-01T00:37:40;24.00;;;8.98;;
64857;SDS011;51335;51.148;6.950;2023-02-01T00:38:11;21.95;;;9.05;;
64857;SDS011;51335;51.148;6.950;2023-02-01T00:38:41;24.38;;;8.60;;
64857;SDS011;51335;51.148;6.950;2023-02-01T00:39:12;19.27;;;8.50;;
64857;SDS011;51335;51.148;6.950;2023-02-01T00:39:43;28.83;;;9.35;;
64857;SDS011;51335;51.148;6.950;2023-02-01T00:40:13;22.77;;;8.55;;
64857;SDS011;51335;51.148;6.950;2023-02-01T00:40:43;25.92;;;8.80;;
64857;SDS011;51335;51.148;6.950;2023-02-01T00:41:14;22.15;;;8.15;;
64857;SDS011;51335;51.148;6.950;2023-02-01T00:41:46;21.15;;;8.30;;
64857;SDS011;51335;51.148;6.950;2023-02-01T00:42:17;20.15;;;8.02;;
64857;SDS011;51335;51.148;6.950;2023-02-01T00:42:47;21.67;;;8.90;;
64857;SDS011;51335;51.148;6.950;2023-02-01T00:43:17;22.45;;;8.38;;
64857;SDS011;51335;51.148;6.950;2023-02-01T00:43:48;23.48;;;8.00;;
64857;SDS011;51335;51.148;6.950;2023-02-01T00:44:18;19.13;;;7.72;;
64857;SDS011;51335;51.148;6.950;2023-02-01T00:44:49;24.25;;;8.52;;
64857;SDS011;51335;51.148;6.950;2023-02-01T00:45:19;26.13;;;8.90;;
64857;SDS011;51335;51.148;6.950;2023-02-01T00:45:50;19.65;;;8.13;;
64857;SDS011;51335;51.148;6.950;2023-02-01T00:46:20;21.50;;;8.00;;
64857;SDS011;51335;51.148;6.950;2023-02-01T00:46:50;22.70;;;7.63;;
64857;SDS011;51335;51.148;6.950;2023-02-01T00:47:21;19.95;;;7.95;;
64857;SDS011;51335;51.148;6.950;2023-02-01T00:47:51;26.05;;;7.95;;
64857;SDS011;51335;51.148;6.950;2023-02-01T00:48:21;20.27;;;7.35;;
64857;SDS011;51335;51.148;6.950;2023-02-01T00:48:51;20.90;;;8.13;;
64857;SDS011;51335;51.148;6.950;2023-02-01T00:49:22;23.52;;;7.68;;
64857;SDS011;51335;51.148;6.950;2023-02-01T00:49:52;25.55;;;7.18;;
64857;SDS011;51335;51.148;6.950;2023-02-01T00:50:22;20.55;;;7.70;;
64857;SDS011;51335;51.148;6.950;2023-02-01T00:50:52;20.77;;;7.30;;
64857;SDS011;51335;51.148;6.950;2023-02-01T00:51:24;24.00;;;7.68;;
64857;SDS011;51335;51.148;6.950;2023-02-01T00:51:55;25.13;;;7.65;;
64857;SDS011;51335;51.148;6.950;2023-02-01T00:52:25;24.60;;;7.43;;
64857;SDS011;51335;51.148;6.950;2023-02-01T00:52:56;20.55;;;6.80;;
64857;SDS011;51335;51.148;6.950;2023-02-01T00:53:26;25.23;;;7.60;;
64857;SDS011;51335;51.148;6.950;2023-02-01T00:53:57;18.08;;;6.93;;
64857;SDS011;51335;51.148;6.950;2023-02-01T00:54:27;17.88;;;7.13;;
64857;SDS011;51335;51.148;6.950;2023-02-01T00:54:57;21.58;;;7.03;;
64857;SDS011;51335;51.148;6.950;2023-02-01T00:55:27;22.67;;;6.72;;
64857;SDS011;51335;51.148;6.950;2023-02-01T00:55:58;21.23;;;6.97;;
64857;SDS011;51335;51.148;6.950;2023-02-01T00:56:28;20.83;;;6.90;;
64857;SDS011;51335;51.148;6.950;2023-02-01T00:56:59;16.55;;;7.03;;
64857;SDS011;51335;51.148;6.950;2023-02-01T00:57:29;21.38;;;6.05;;
64857;SDS011;51335;51.148;6.950;2023-02-01T00:58:00;24.10;;;7.22;;
64857;SDS011;51335;51.148;6.950;2023-02-01T00:58:31;17.58;;;6.68;;
64857;SDS011;51335;51.148;6.950;2023-02-01T00:59:02;30.30;;;6.57;;
64857;SDS011;51335;51.148;6.950;2023-02-01T00:59:32;19.70;;;6.22;;
64857;SDS011;51335;51.148;6.950;2023-02-01T01:00:02;17.90;;;6.05;;
64857;SDS011;51335;51.148;6.950;2023-02-01T01:00:33;20.38;;;6.55;;
64857;SDS011;51335;51.148;6.950;2023-02-01T01:01:05;17.55;;;6.30;;
64857;SDS011;51335;51.148;6.950;2023-02-01T01:01:40;21.88;;;6.32;;
64857;SDS011;51335;51.148;6.950;2023-02-01T01:02:11;19.73;;;6.10;;
64857;SDS011;51335;51.148;6.950;2023-02-01T01:02:41;18.70;;;5.80;;
64857;SDS011;51335;51.148;6.950;2023-02-01T01:03:11;22.48;;;6.55;;
64857;SDS011;51335;51.148;6.950;2023-02-01T01:03:43;22.08;;;6.70;;
64857;SDS011;51335;51.148;6.950;2023-02-01T01:04:15;20.33;;;5.97;;
64857;SDS011;51335;51.148;6.950;2023-02-01T01:04:45;16.35;;;5.97;;
64857;SDS011;51335;51.148;6.950;2023-02-01T01:05:15;23.38;;;6.88;;
64857;SDS011;51335;51.148;6.950;2023-02-01T01:05:46;23.42;;;6.50;;
64857;SDS011;51335;51.148;6.950;2023-02-01T01:06:24;20.15;;;6.15;;
64857;SDS011;51335;51.148;6.950;2023-02-01T01:06:57;23.25;;;5.97;;
64857;SDS011;51335;51.148;6.950;2023-02-01T01:07:28;15.80;;;5.57;;
64857;SDS011;51335;51.148;6.950;2023-02-01T01:07:58;23.55;;;6.43;;
64857;SDS011;51335;51.148;6.950;2023-02-01T01:08:28;22.05;;;5.40;;
64857;SDS011;51335;51.148;6.950;2023-02-01T01:09:00;14.85;;;5.47;;
64857;SDS011;51335;51.148;6.950;2023-02-01T01:09:32;21.30;;;6.10;;
64857;SDS011;51335;51.148;6.950;2023-02-01T01:10:02;19.08;;;5.95;;
64857;SDS011;51335;51.148;6.950;2023-02-01T01:10:33;18.60;;;5.43;;
64857;SDS011;51335;51.148;6.950;2023-02-01T01:11:04;21.42;;;5.53;;
64857;SDS011;51335;51.148;6.950;2023-02-01T01:11:36;16.55;;;5.38;;
64857;SDS011;51335;51.148;6.950;2023-02-01T01:12:07;19.02;;;5.32;;
64857;SDS011;51335;51.148;6.950;2023-02-01T01:12:37;19.90;;;5.18;;
64857;SDS011;51335;51.148;6.950;2023-02-01T01:13:08;18.45;;;5.28;;
64857;SDS011;51335;51.148;6.950;2023-02-01T01:13:39;20.13;;;6.05;;
64857;SDS011;51335;51.148;6.950;2023-02-01T01:14:09;17.08;;;5.40;;
64857;SDS011;51335;51.148;6.950;2023-02-01T01:14:40;19.27;;;5.97;;
64857;SDS011;51335;51.148;6.950;2023-02-01T01:15:11;20.20;;;5.40;;
64857;SDS011;51335;51.148;6.950;2023-02-01T01:15:41;19.17;;;5.05;;
64857;SDS011;51335;51.148;6.950;2023-02-01T01:16:11;23.45;;;5.43;;
64857;SDS011;51335;51.148;6.950;2023-02-01T01:16:42;20.92;;;5.40;;
64857;SDS011;51335;51.148;6.950;2023-02-01T01:17:12;21.27;;;5.55;;
64857;SDS011;51335;51.148;6.950;2023-02-01T01:17:42;20.85;;;4.85;;
64857;SDS011;51335;51.148;6.950;2023-02-01T01:18:12;19.60;;;5.28;;
64857;SDS011;51335;51.148;6.950;2023-02-01T01:18:43;21.55;;;5.95;;
64857;SDS011;51335;51.148;6.950;2023-02-01T01:19:13;22.65;;;5.65;;
64857;SDS011;51335;51.148;6.950;2023-02-01T01:19:44;23.92;;;5.28;;
64857;SDS011;51335;51.148;6.950;2023-02-01T01:20:14;22.58;;;5.07;;
64857;SDS011;51335;51.148;6.950;2023-02-01T01:20:44;21.80;;;5.18;;
64857;SDS011;51335;51.148;6.950;2023-02-01T01:21:15;18.98;;;5.03;;
64857;SDS011;51335;51.148;6.950;2023-02-01T01:21:46;11.80;;;4.07;;
64857;SDS011;51335;51.148;6.950;2023-02-01T01:22:16;22.92;;;4.93;;
64857;SDS011;51335;51.148;6.950;2023-02-01T01:22:47;18.23;;;4.68;;
64857;SDS011;51335;51.148;6.950;2023-02-01T01:23:17;15.27;;;4.45;;
64857;SDS011;51335;51.148;6.950;2023-02-01T01:23:48;16.42;;;4.40;;
64857;SDS011;51335;51.148;6.950;2023-02-01T01:24:18;16.63;;;4.43;;
64857;SDS011;51335;51.148;6.950;2023-02-01T01:24:48;16.52;;;4.90;;
64857;SDS011;51335;51.148;6.950;2023-02-01T01:25:18;15.60;;;4.47;;
64857;SDS011;51335;51.148;6.950;2023-02-01T01:25:49;20.95;;;4.70;;
64857;SDS011;51335;51.148;6.950;2023-02-01T01:26:20;20.65;;;4.85;;
64857;SDS011;51335;51.148;6.950;2023-02-01T01:26:52;23.52;;;5.03;;
64857;SDS011;51335;51.148;6.950;2023-02-01T01:27:23;17.23;;;4.68;;
64857;SDS011;51335;51.148;6.950;2023-02-01T01:27:53;17.40;;;4.68;;
64857;SDS011;51335;51.148;6.950;2023-02-01T01:28:24;16.80;;;4.25;;
64857;SDS011;51335;51.148;6.950;2023-02-01T01:28:55;17.95;;;5.20;;
64857;SDS011;51335;51.148;6.950;2023-02-01T01:29:26;22.50;;;4.75;;
64857;SDS011;51335;51.148;6.950;2023-02-01T01:29:56;15.98;;;3.88;;
64857;SDS011;51335;51.148;6.950;2023-02-01T01:30:26;14.55;;;4.57;;
64857;SDS011;51335;51.148;6.950;2023-02-01T01:30:57;21.67;;;4.30;;
64857;SDS011;51335;51.148;6.950;2023-02-01T01:31:27;18.73;;;4.28;;
64857;SDS011;51335;51.148;6.950;2023-02-01T01:31:58;14.88;;;4.30;;
64857;SDS011;51335;51.148;6.950;2023-02-01T01:32:28;20.17;;;4.22;;
64857;SDS011;51335;51.148;6.950;2023-02-01T01:32:58;21.45;;;4.13;;
64857;SDS011;51335;51.148;6.950;2023-02-01T01:33:28;21.08;;;4.38;;
64857;SDS011;51335;51.148;6.950;2023-02-01T01:33:59;14.68;;;4.18;;
64857;SDS011;51335;51.148;6.950;2023-02-01T01:34:29;20.10;;;4.15;;
64857;SDS011;51335;51.148;6.950;2023-02-01T01:35:00;17.80;;;3.95;;
64857;SDS011;51335;51.148;6.950;2023-02-01T01:35:30;16.55;;;4.13;;
64857;SDS011;51335;51.148;6.950;2023-02-01T01:36:01;16.33;;;4.30;;
64857;SDS011;51335;51.148;6.950;2023-02-01T01:36:33;16.55;;;4.03;;
64857;SDS011;51335;51.148;6.950;2023-02-01T01:37:04;15.70;;;3.92;;
64857;SDS011;51335;51.148;6.950;2023-02-01T01:37:34;18.20;;;3.88;;
64857;SDS011;51335;51.148;6.950;2023-02-01T01:38:04;13.65;;;3.67;;
64857;SDS011;51335;51.148;6.950;2023-02-01T01:38:35;17.13;;;4.05;;
64857;SDS011;51335;51.148;6.950;2023-02-01T01:39:05;13.35;;;3.65;;
64857;SDS011;51335;51.148;6.950;2023-02-01T01:39:35;12.68;;;3.53;;
64857;SDS011;51335;51.148;6.950;2023-02-01T01:40:06;19.73;;;3.85;;
64857;SDS011;51335;51.148;6.950;2023-02-01T01:40:37;19.75;;;3.90;;
64857;SDS011;51335;51.148;6.950;2023-02-01T01:41:08;19.17;;;3.70;;
64857;SDS011;51335;51.148;6.950;2023-02-01T01:41:43;16.05;;;3.78;;
64857;SDS011;51335;51.148;6.950;2023-02-01T01:42:14;18.35;;;3.92;;
64857;SDS011;51335;51.148;6.950;2023-02-01T01:42:44;21.73;;;4.05;;
64857;SDS011;51335;51.148;6.950;2023-02-01T01:43:15;17.52;;;3.78;;
64857;SDS011;51335;51.148;6.950;2023-02-01T01:43:55;18.77;;;3.58;;
64857;SDS011;51335;51.148;6.950;2023-02-01T01:45:34;13.70;;;3.20;;
64857;SDS011;51335;51.148;6.950;2023-02-01T01:46:05;19.20;;;3.78;;
64857;SDS011;51335;51.148;6.950;2023-02-01T01:46:36;20.70;;;3.60;;
64857;SDS011;51335;51.148;6.950;2023-02-01T01:47:07;15.15;;;3.10;;
64857;SDS011;51335;51.148;6.950;2023-02-01T01:47:40;14.25;;;3.35;;
64857;SDS011;51335;51.148;6.950;2023-02-01T01:48:25;20.63;;;3.78;;
64857;SDS011;51335;51.148;6.950;2023-02-01T01:49:30;17.33;;;3.55;;
64857;SDS011;51335;51.148;6.950;2023-02-01T01:50:01;21.25;;;3.50;;
64857;SDS011;51335;51.148;6.950;2023-02-01T01:50:54;17.75;;;3.28;;
64857;SDS011;51335;51.148;6.950;2023-02-01T01:51:28;12.98;;;3.20;;
64857;SDS011;51335;51.148;6.950;2023-02-01T01:52:02;20.00;;;4.05;;
64857;SDS011;51335;51.148;6.950;2023-02-01T01:52:33;19.35;;;3.33;;
64857;SDS011;51335;51.148;6.950;2023-02-01T01:53:05;14.10;;;3.05;;
64857;SDS011;51335;51.148;6.950;2023-02-01T01:53:42;21.67;;;3.72;;
64857;SDS011;51335;51.148;6.950;2023-02-01T01:54:18;16.50;;;3.40;;
64857;SDS011;51335;51.148;6.950;2023-02-01T01:55:10;18.08;;;3.40;;
64857;SDS011;51335;51.148;6.950;2023-02-01T01:55:41;15.50;;;3.35;;
64857;SDS011;51335;51.148;6.950;2023-02-01T01:56:13;13.40;;;3.30;;
64857;SDS011;51335;51.148;6.950;2023-02-01T01:56:45;15.55;;;3.35;;
64857;SDS011;51335;51.148;6.950;2023-02-01T01:57:24;14.45;;;3.30;;
64857;SDS011;51335;51.148;6.950;2023-02-01T01:57:58;18.85;;;3.25;;
64857;SDS011;51335;51.148;6.950;2023-02-01T01:58:31;12.65;;;2.90;;
64857;SDS011;51335;51.148;6.950;2023-02-01T01:59:03;16.00;;;3.75;;
64857;SDS011;51335;51.148;6.950;2023-02-01T01:59:34;11.77;;;3.03;;
64857;SDS011;51335;51.148;6.950;2023-02-01T02:00:09;20.15;;;3.33;;
64857;SDS011;51335;51.148;6.950;2023-02-01T02:00:42;12.40;;;2.75;;
64857;SDS011;51335;51.148;6.950;2023-02-01T02:01:13;21.10;;;3.45;;
64857;SDS011;51335;51.148;6.950;2023-02-01T02:01:44;14.48;;;3.15;;
64857;SDS011;51335;51.148;6.950;2023-02-01T02:02:15;10.68;;;2.85;;
64857;SDS011;51335;51.148;6.950;2023-02-01T02:02:47;16.70;;;3.47;;
64857;SDS011;51335;51.148;6.950;2023-02-01T02:03:58;16.40;;;3.15;;
64857;SDS011;51335;51.148;6.950;2023-02-01T02:04:30;14.35;;;3.25;;
64857;SDS011;51335;51.148;6.950;2023-02-01T02:05:02;16.80;;;2.90;;
64857;SDS011;51335;51.148;6.950;2023-02-01T02:05:33;23.92;;;3.20;;
64857;SDS011;51335;51.148;6.950;2023-02-01T02:06:05;13.98;;;3.42;;
64857;SDS011;51335;51.148;6.950;2023-02-01T02:07:16;19.25;;;3.72;;
64857;SDS011;51335;51.148;6.950;2023-02-01T02:07:52;21.02;;;3.35;;
64857;SDS011;51335;51.148;6.950;2023-02-01T02:08:25;13.23;;;2.90;;
64857;SDS011;51335;51.148;6.950;2023-02-01T02:08:56;12.95;;;2.60;;
64857;SDS011;51335;51.148;6.950;2023-02-01T02:09:26;17.73;;;3.25;;
64857;SDS011;51335;51.148;6.950;2023-02-01T02:09:57;19.63;;;3.25;;
64857;SDS011;51335;51.148;6.950;2023-02-01T02:10:27;16.67;;;3.17;;
64857;SDS011;51335;51.148;6.950;2023-02-01T02:10:58;18.13;;;3.53;;
64857;SDS011;51335;51.148;6.950;2023-02-01T02:11:28;17.73;;;3.30;;
64857;SDS011;51335;51.148;6.950;2023-02-01T02:11:58;17.10;;;2.95;;
64857;SDS011;51335;51.148;6.950;2023-02-01T02:12:29;20.08;;;3.33;;
64857;SDS011;51335;51.148;6.950;2023-02-01T02:12:59;17.88;;;3.38;;
64857;SDS011;51335;51.148;6.950;2023-02-01T02:13:40;20.58;;;3.53;;
64857;SDS011;51335;51.148;6.950;2023-02-01T02:14:12;18.90;;;3.10;;
64857;SDS011;51335;51.148;6.950;2023-02-01T02:14:45;18.35;;;3.05;;
64857;SDS011;51335;51.148;6.950;2023-02-01T02:15:16;16.55;;;3.00;;
64857;SDS011;51335;51.148;6.950;2023-02-01T02:15:55;13.93;;;2.83;;
64857;SDS011;51335;51.148;6.950;2023-02-01T02:17:36;14.13;;;2.97;;
64857;SDS011;51335;51.148;6.950;2023-02-01T02:18:28;10.57;;;2.50;;
64857;SDS011;51335;51.148;6.950;2023-02-01T02:21:23;16.60;;;3.05;;
64857;SDS011;51335;51.148;6.950;2023-02-01T02:27:00;13.75;;;2.75;;
64857;SDS011;51335;51.148;6.950;2023-02-01T02:28:05;16.35;;;3.00;;
64857;SDS011;51335;51.148;6.950;2023-02-01T02:29:49;13.85;;;2.50;;
64857;SDS011;51335;51.148;6.950;2023-02-01T02:34:48;15.98;;;3.10;;
64857;SDS011;51335;51.148;6.950;2023-02-01T02:35:30;13.95;;;2.75;;
64857;SDS011;51335;51.148;6.950;2023-02-01T02:36:06;15.35;;;2.70;;
64857;SDS011;51335;51.148;6.950;2023-02-01T02:36:40;15.85;;;2.88;;
64857;SDS011;51335;51.148;6.950;2023-02-01T02:37:43;14.82;;;2.80;;
64857;SDS011;51335;51.148;6.950;2023-02-01T02:38:26;14.10;;;2.75;;
64857;SDS011;51335;51.148;6.950;2023-02-01T02:39:21;16.23;;;2.72;;
64857;SDS011;51335;51.148;6.950;2023-02-01T02:40:15;18.48;;;2.75;;
64857;SDS011;51335;51.148;6.950;2023-02-01T02:41:01;15.02;;;2.92;;
64857;SDS011;51335;51.148;6.950;2023-02-01T02:43:23;15.20;;;3.03;;
64857;SDS011;51335;51.148;6.950;2023-02-01T02:44:02;18.20;;;2.85;;
64857;SDS011;51335;51.148;6.950;2023-02-01T02:44:46;16.35;;;3.35;;
64857;SDS011;51335;51.148;6.950;2023-02-01T02:45:28;16.48;;;2.58;;
64857;SDS011;51335;51.148;6.950;2023-02-01T02:46:12;16.55;;;2.85;;
64857;SDS011;51335;51.148;6.950;2023-02-01T02:46:51;13.23;;;2.88;;
64857;SDS011;51335;51.148;6.950;2023-02-01T02:47:27;15.18;;;2.92;;
64857;SDS011;51335;51.148;6.950;2023-02-01T02:49:29;19.13;;;3.20;;
64857;SDS011;51335;51.148;6.950;2023-02-01T02:51:05;11.80;;;2.83;;
64857;SDS011;51335;51.148;6.950;2023-02-01T02:52:05;17.48;;;3.60;;
64857;SDS011;51335;51.148;6.950;2023-02-01T02:52:45;18.63;;;3.28;;
64857;SDS011;51335;51.148;6.950;2023-02-01T02:53:23;16.05;;;2.95;;
64857;SDS011;51335;51.148;6.950;2023-02-01T02:54:34;19.48;;;2.88;;
64857;SDS011;51335;51.148;6.950;2023-02-01T02:55:08;17.63;;;2.70;;
64857;SDS011;51335;51.148;6.950;2023-02-01T02:55:39;12.05;;;2.70;;
64857;SDS011;51335;51.148;6.950;2023-02-01T02:56:10;16.48;;;3.15;;
64857;SDS011;51335;51.148;6.950;2023-02-01T02:56:42;22.27;;;3.50;;
64857;SDS011;51335;51.148;6.950;2023-02-01T02:57:20;19.63;;;2.90;;
64857;SDS011;51335;51.148;6.950;2023-02-01T02:57:54;16.10;;;3.30;;
64857;SDS011;51335;51.148;6.950;2023-02-01T02:58:27;20.77;;;3.15;;
64857;SDS011;51335;51.148;6.950;2023-02-01T02:58:57;12.70;;;2.95;;
64857;SDS011;51335;51.148;6.950;2023-02-01T02:59:28;16.67;;;3.55;;
64857;SDS011;51335;51.148;6.950;2023-02-01T03:00:00;16.77;;;3.20;;
64857;SDS011;51335;51.148;6.950;2023-02-01T03:00:34;16.98;;;3.50;;
64857;SDS011;51335;51.148;6.950;2023-02-01T03:01:06;16.35;;;3.40;;
64857;SDS011;51335;51.148;6.950;2023-02-01T03:01:37;15.50;;;3.03;;
64857;SDS011;51335;51.148;6.950;2023-02-01T03:02:09;14.32;;;2.95;;
64857;SDS011;51335;51.148;6.950;2023-02-01T03:02:40;16.08;;;3.05;;
64857;SDS011;51335;51.148;6.950;2023-02-01T03:03:11;18.38;;;3.10;;
64857;SDS011;51335;51.148;6.950;2023-02-01T03:03:42;18.42;;;3.15;;
64857;SDS011;51335;51.148;6.950;2023-02-01T03:04:13;18.95;;;3.20;;
64857;SDS011;51335;51.148;6.950;2023-02-01T03:04:44;17.70;;;3.30;;
64857;SDS011;51335;51.148;6.950;2023-02-01T03:05:14;18.42;;;3.55;;
64857;SDS011;51335;51.148;6.950;2023-02-01T03:05:45;15.93;;;2.70;;
64857;SDS011;51335;51.148;6.950;2023-02-01T03:06:17;11.57;;;3.20;;
64857;SDS011;51335;51.148;6.950;2023-02-01T03:06:48;21.13;;;3.80;;
64857;SDS011;51335;51.148;6.950;2023-02-01T03:08:26;16.63;;;2.90;;
64857;SDS011;51335;51.148;6.950;2023-02-01T03:08:58;13.77;;;2.67;;
64857;SDS011;51335;51.148;6.950;2023-02-01T03:09:33;20.42;;;2.78;;
64857;SDS011;51335;51.148;6.950;2023-02-01T03:10:07;20.38;;;4.03;;
64857;SDS011;51335;51.148;6.950;2023-02-01T03:11:29;16.58;;;2.72;;
64857;SDS011;51335;51.148;6.950;2023-02-01T03:12:02;17.17;;;3.15;;
64857;SDS011;51335;51.148;6.950;2023-02-01T03:12:38;17.23;;;3.05;;
64857;SDS011;51335;51.148;6.950;2023-02-01T03:13:16;16.17;;;3.95;;
64857;SDS011;51335;51.148;6.950;2023-02-01T03:14:08;11.75;;;2.90;;
64857;SDS011;51335;51.148;6.950;2023-02-01T03:14:41;20.73;;;3.60;;
64857;SDS011;51335;51.148;6.950;2023-02-01T03:15:15;16.05;;;2.95;;
64857;SDS011;51335;51.148;6.950;2023-02-01T03:15:49;21.48;;;3.60;;
64857;SDS011;51335;51.148;6.950;2023-02-01T03:17:15;18.73;;;4.60;;
64857;SDS011;51335;51.148;6.950;2023-02-01T03:17:50;13.82;;;3.10;;
64857;SDS011;51335;51.148;6.950;2023-02-01T03:19:21;16.00;;;3.28;;
64857;SDS011;51335;51.148;6.950;2023-02-01T03:19:55;19.77;;;3.17;;
64857;SDS011;51335;51.148;6.950;2023-02-01T03:20:30;16.80;;;3.15;;
64857;SDS011;51335;51.148;6.950;2023-02-01T03:21:02;13.85;;;3.30;;
64857;SDS011;51335;51.148;6.950;2023-02-01T03:22:29;13.98;;;2.60;;
64857;SDS011;51335;51.148;6.950;2023-02-01T03:23:01;11.70;;;2.72;;
64857;SDS011;51335;51.148;6.950;2023-02-01T03:23:35;16.15;;;3.25;;
64857;SDS011;51335;51.148;6.950;2023-02-01T03:24:40;17.85;;;3.83;;
64857;SDS011;51335;51.148;6.950;2023-02-01T03:25:09;17.42;;;3.47;;
64857;SDS011;51335;51.148;6.950;2023-02-01T03:25:42;16.05;;;3.20;;
64857;SDS011;51335;51.148;6.950;2023-02-01T03:26:14;14.10;;;3.03;;
64857;SDS011;51335;51.148;6.950;2023-02-01T03:26:48;18.38;;;3.05;;
64857;SDS011;51335;51.148;6.950;2023-02-01T03:27:27;16.92;;;3.35;;
64857;SDS011;51335;51.148;6.950;2023-02-01T03:28:03;16.42;;;3.20;;
64857;SDS011;51335;51.148;6.950;2023-02-01T03:28:37;14.32;;;2.95;;
64857;SDS011;51335;51.148;6.950;2023-02-01T03:29:13;20.73;;;3.88;;
64857;SDS011;51335;51.148;6.950;2023-02-01T03:30:40;20.20;;;3.45;;
64857;SDS011;51335;51.148;6.950;2023-02-01T03:31:12;12.95;;;2.83;;
64857;SDS011;51335;51.148;6.950;2023-02-01T03:31:43;16.33;;;3.40;;
64857;SDS011;51335;51.148;6.950;2023-02-01T03:32:13;15.98;;;3.03;;
64857;SDS011;51335;51.148;6.950;2023-02-01T03:32:44;18.98;;;3.58;;
64857;SDS011;51335;51.148;6.950;2023-02-01T03:33:18;22.73;;;4.03;;
64857;SDS011;51335;51.148;6.950;2023-02-01T03:33:50;17.27;;;4.07;;
64857;SDS011;51335;51.148;6.950;2023-02-01T03:34:21;18.92;;;3.42;;
64857;SDS011;51335;51.148;6.950;2023-02-01T03:34:51;18.58;;;3.15;;
64857;SDS011;51335;51.148;6.950;2023-02-01T03:35:29;22.38;;;4.10;;
64857;SDS011;51335;51.148;6.950;2023-02-01T03:36:45;14.75;;;3.40;;
64857;SDS011;51335;51.148;6.950;2023-02-01T03:37:26;21.90;;;3.80;;
64857;SDS011;51335;51.148;6.950;2023-02-01T03:38:07;21.30;;;3.53;;
64857;SDS011;51335;51.148;6.950;2023-02-01T03:38:47;23.70;;;3.70;;
64857;SDS011;51335;51.148;6.950;2023-02-01T03:40:09;16.75;;;3.00;;
64857;SDS011;51335;51.148;6.950;2023-02-01T03:40:42;18.85;;;3.25;;
64857;SDS011;51335;51.148;6.950;2023-02-01T03:41:23;16.38;;;3.15;;
64857;SDS011;51335;51.148;6.950;2023-02-01T03:42:18;20.67;;;4.13;;
64857;SDS011;51335;51.148;6.950;2023-02-01T03:42:54;22.90;;;3.10;;
64857;SDS011;51335;51.148;6.950;2023-02-01T03:43:29;13.25;;;2.90;;